sensor_id;sensor_type;location;lat;lon;timestamp;P1;durP1;ratioP1;P2;durP2;ratioP2
21591;SDS011;10958;50.892;3.992;2023-07-08T00:00:52;8.77;;;4.32;;
21591;SDS011;10958;50.892;3.992;2023-07-08T00:03:19;7.65;;;4.40;;
21591;SDS011;10958;50.892;3.992;2023-07-08T00:05:48;7.45;;;4.18;;
21591;SDS011;10958;50.892;3.992;2023-07-08T00:08:21;6.70;;;4.28;;
21591;SDS011;10958;50.892;3.992;2023-07-08T00:10:47;7.15;;;4.10;;
21591;SDS011;10958;50.892;3.992;2023-07-08T00:13:13;6.50;;;4.28;;
21591;SDS011;10958;50.892;3.992;2023-07-08T00:15:39;8.95;;;4.75;;
21591;SDS011;10958;50.892;3.992;2023-07-08T00:18:10;6.45;;;4.70;;
21591;SDS011;10958;50.892;3.992;2023-07-08T00:20:41;6.80;;;4.30;;
21591;SDS011;10958;50.892;3.992;2023-07-08T00:23:11;7.40;;;4.03;;
21591;SDS011;10958;50.892;3.992;2023-07-08T00:25:40;6.15;;;4.25;;
21591;SDS011;10958;50.892;3.992;2023-07-08T00:28:10;6.38;;;4.38;;
21591;SDS011;10958;50.892;3.992;2023-07-08T00:30:41;8.27;;;4.65;;
21591;SDS011;10958;50.892;3.992;2023-07-08T00:33:07;6.55;;;4.10;;
21591;SDS011;10958;50.892;3.992;2023-07-08T00:40:59;6.93;;;4.07;;
21591;SDS011;10958;50.892;3.992;2023-07-08T00:44:07;6.43;;;4.07;;
21591;SDS011;10958;50.892;3.992;2023-07-08T00:51:34;5.47;;;4.00;;
21591;SDS011;10958;50.892;3.992;2023-07-08T00:54:03;7.20;;;3.92;;
21591;SDS011;10958;50.892;3.992;2023-07-08T00:56:36;8.38;;;4.65;;
21591;SDS011;10958;50.892;3.992;2023-07-08T00:59:07;7.25;;;4.45;;
21591;SDS011;10958;50.892;3.992;2023-07-08T01:01:36;7.47;;;4.22;;
21591;SDS011;10958;50.892;3.992;2023-07-08T01:04:11;5.60;;;3.95;;
21591;SDS011;10958;50.892;3.992;2023-07-08T01:06:39;8.90;;;4.38;;
21591;SDS011;10958;50.892;3.992;2023-07-08T01:09:10;7.53;;;4.50;;
21591;SDS011;10958;50.892;3.992;2023-07-08T01:11:41;6.20;;;4.50;;
21591;SDS011;10958;50.892;3.992;2023-07-08T01:16:34;7.93;;;4.55;;
21591;SDS011;10958;50.892;3.992;2023-07-08T01:19:01;6.78;;;4.25;;
21591;SDS011;10958;50.892;3.992;2023-07-08T01:21:36;5.55;;;4.40;;
21591;SDS011;10958;50.892;3.992;2023-07-08T01:24:07;9.35;;;4.57;;
21591;SDS011;10958;50.892;3.992;2023-07-08T01:26:36;9.00;;;4.40;;
21591;SDS011;10958;50.892;3.992;2023-07-08T01:29:05;7.40;;;4.55;;
21591;SDS011;10958;50.892;3.992;2023-07-08T01:31:32;7.43;;;4.60;;
21591;SDS011;10958;50.892;3.992;2023-07-08T01:34:01;5.63;;;4.30;;
21591;SDS011;10958;50.892;3.992;2023-07-08T01:36:31;8.32;;;4.75;;
21591;SDS011;10958;50.892;3.992;2023-07-08T01:39:02;6.78;;;4.55;;
21591;SDS011;10958;50.892;3.992;2023-07-08T01:41:28;6.65;;;4.55;;
21591;SDS011;10958;50.892;3.992;2023-07-08T01:43:54;6.90;;;4.53;;
21591;SDS011;10958;50.892;3.992;2023-07-08T01:46:22;5.95;;;4.38;;
21591;SDS011;10958;50.892;3.992;2023-07-08T01:48:51;6.53;;;4.70;;
21591;SDS011;10958;50.892;3.992;2023-07-08T01:51:20;7.53;;;4.90;;
21591;SDS011;10958;50.892;3.992;2023-07-08T01:53:47;8.30;;;4.57;;
21591;SDS011;10958;50.892;3.992;2023-07-08T01:56:13;6.88;;;5.03;;
21591;SDS011;10958;50.892;3.992;2023-07-08T01:58:40;8.63;;;4.50;;
21591;SDS011;10958;50.892;3.992;2023-07-08T02:01:07;6.15;;;4.25;;
21591;SDS011;10958;50.892;3.992;2023-07-08T02:03:33;5.43;;;4.05;;
21591;SDS011;10958;50.892;3.992;2023-07-08T02:06:02;7.53;;;4.28;;
21591;SDS011;10958;50.892;3.992;2023-07-08T02:08:31;6.05;;;4.45;;
21591;SDS011;10958;50.892;3.992;2023-07-08T02:10:57;8.32;;;4.50;;
21591;SDS011;10958;50.892;3.992;2023-07-08T02:13:23;7.82;;;4.55;;
21591;SDS011;10958;50.892;3.992;2023-07-08T02:15:50;6.43;;;4.47;;
21591;SDS011;10958;50.892;3.992;2023-07-08T02:18:19;5.57;;;4.47;;
21591;SDS011;10958;50.892;3.992;2023-07-08T02:20:45;8.45;;;4.75;;
21591;SDS011;10958;50.892;3.992;2023-07-08T02:23:11;8.90;;;4.72;;
21591;SDS011;10958;50.892;3.992;2023-07-08T02:25:40;5.15;;;4.35;;
21591;SDS011;10958;50.892;3.992;2023-07-08T02:28:05;6.30;;;4.47;;
21591;SDS011;10958;50.892;3.992;2023-07-08T02:30:31;8.23;;;4.97;;
21591;SDS011;10958;50.892;3.992;2023-07-08T02:32:57;8.20;;;4.35;;
21591;SDS011;10958;50.892;3.992;2023-07-08T02:35:29;6.53;;;4.85;;
21591;SDS011;10958;50.892;3.992;2023-07-08T02:37:55;7.32;;;4.53;;
21591;SDS011;10958;50.892;3.992;2023-07-08T02:40:22;9.23;;;5.18;;
21591;SDS011;10958;50.892;3.992;2023-07-08T02:42:49;8.10;;;4.88;;
21591;SDS011;10958;50.892;3.992;2023-07-08T02:45:15;8.60;;;5.00;;
21591;SDS011;10958;50.892;3.992;2023-07-08T02:47:41;10.13;;;5.22;;
21591;SDS011;10958;50.892;3.992;2023-07-08T02:50:08;9.18;;;4.95;;
21591;SDS011;10958;50.892;3.992;2023-07-08T02:52:38;9.73;;;5.25;;
21591;SDS011;10958;50.892;3.992;2023-07-08T02:55:04;5.55;;;4.72;;
21591;SDS011;10958;50.892;3.992;2023-07-08T02:57:30;7.65;;;4.95;;
21591;SDS011;10958;50.892;3.992;2023-07-08T02:59:55;9.30;;;4.72;;
21591;SDS011;10958;50.892;3.992;2023-07-08T03:02:21;8.45;;;4.80;;
21591;SDS011;10958;50.892;3.992;2023-07-08T03:04:48;10.90;;;4.70;;
21591;SDS011;10958;50.892;3.992;2023-07-08T03:07:15;6.93;;;4.75;;
21591;SDS011;10958;50.892;3.992;2023-07-08T03:09:41;10.60;;;4.88;;
21591;SDS011;10958;50.892;3.992;2023-07-08T03:12:08;9.75;;;5.03;;
21591;SDS011;10958;50.892;3.992;2023-07-08T03:14:36;10.50;;;5.22;;
21591;SDS011;10958;50.892;3.992;2023-07-08T03:17:03;12.82;;;5.03;;
21591;SDS011;10958;50.892;3.992;2023-07-08T03:19:31;7.82;;;4.90;;
21591;SDS011;10958;50.892;3.992;2023-07-08T03:21:57;7.80;;;4.80;;
21591;SDS011;10958;50.892;3.992;2023-07-08T03:24:28;6.93;;;4.78;;
21591;SDS011;10958;50.892;3.992;2023-07-08T03:26:54;7.70;;;4.85;;
21591;SDS011;10958;50.892;3.992;2023-07-08T03:29:20;8.63;;;4.93;;
21591;SDS011;10958;50.892;3.992;2023-07-08T03:31:46;7.20;;;5.15;;
21591;SDS011;10958;50.892;3.992;2023-07-08T03:34:12;7.38;;;4.47;;
21591;SDS011;10958;50.892;3.992;2023-07-08T03:36:46;6.10;;;4.70;;
21591;SDS011;10958;50.892;3.992;2023-07-08T03:39:15;7.75;;;4.70;;
21591;SDS011;10958;50.892;3.992;2023-07-08T03:41:45;7.78;;;4.97;;
21591;SDS011;10958;50.892;3.992;2023-07-08T03:44:13;8.82;;;5.05;;
21591;SDS011;10958;50.892;3.992;2023-07-08T03:46:43;10.07;;;5.00;;
21591;SDS011;10958;50.892;3.992;2023-07-08T03:49:10;6.80;;;4.65;;
21591;SDS011;10958;50.892;3.992;2023-07-08T03:51:39;7.82;;;4.75;;
21591;SDS011;10958;50.892;3.992;2023-07-08T03:54:08;7.30;;;4.45;;
21591;SDS011;10958;50.892;3.992;2023-07-08T03:56:37;6.88;;;4.55;;
21591;SDS011;10958;50.892;3.992;2023-07-08T03:59:02;7.78;;;5.15;;
21591;SDS011;10958;50.892;3.992;2023-07-08T04:01:28;8.30;;;4.57;;
21591;SDS011;10958;50.892;3.992;2023-07-08T04:03:55;12.05;;;5.38;;
21591;SDS011;10958;50.892;3.992;2023-07-08T04:06:23;10.75;;;5.45;;
21591;SDS011;10958;50.892;3.992;2023-07-08T04:08:49;8.30;;;5.25;;
21591;SDS011;10958;50.892;3.992;2023-07-08T04:11:18;9.45;;;5.18;;
21591;SDS011;10958;50.892;3.992;2023-07-08T04:13:46;8.23;;;4.72;;
21591;SDS011;10958;50.892;3.992;2023-07-08T04:16:21;8.93;;;4.80;;
21591;SDS011;10958;50.892;3.992;2023-07-08T04:18:54;10.20;;;4.80;;
21591;SDS011;10958;50.892;3.992;2023-07-08T04:21:21;7.55;;;5.22;;
21591;SDS011;10958;50.892;3.992;2023-07-08T04:23:48;7.13;;;5.28;;
21591;SDS011;10958;50.892;3.992;2023-07-08T04:26:17;7.63;;;4.75;;
21591;SDS011;10958;50.892;3.992;2023-07-08T04:28:44;8.20;;;5.03;;
21591;SDS011;10958;50.892;3.992;2023-07-08T04:31:09;8.02;;;5.00;;
21591;SDS011;10958;50.892;3.992;2023-07-08T04:33:35;8.98;;;5.43;;
21591;SDS011;10958;50.892;3.992;2023-07-08T04:36:01;11.55;;;6.43;;
21591;SDS011;10958;50.892;3.992;2023-07-08T04:38:27;8.20;;;5.13;;
21591;SDS011;10958;50.892;3.992;2023-07-08T04:40:54;7.75;;;5.00;;
21591;SDS011;10958;50.892;3.992;2023-07-08T04:43:20;7.68;;;5.07;;
21591;SDS011;10958;50.892;3.992;2023-07-08T04:45:47;8.43;;;4.85;;
21591;SDS011;10958;50.892;3.992;2023-07-08T04:48:16;7.68;;;4.70;;
21591;SDS011;10958;50.892;3.992;2023-07-08T04:50:46;9.30;;;5.18;;
21591;SDS011;10958;50.892;3.992;2023-07-08T04:53:15;7.57;;;5.15;;
21591;SDS011;10958;50.892;3.992;2023-07-08T04:55:47;10.00;;;5.18;;
21591;SDS011;10958;50.892;3.992;2023-07-08T04:58:18;9.88;;;5.43;;
21591;SDS011;10958;50.892;3.992;2023-07-08T05:00:49;6.40;;;4.97;;
21591;SDS011;10958;50.892;3.992;2023-07-08T05:03:15;11.80;;;5.13;;
21591;SDS011;10958;50.892;3.992;2023-07-08T05:05:41;8.02;;;4.80;;
21591;SDS011;10958;50.892;3.992;2023-07-08T05:08:12;7.55;;;5.15;;
21591;SDS011;10958;50.892;3.992;2023-07-08T05:10:40;7.43;;;5.10;;
21591;SDS011;10958;50.892;3.992;2023-07-08T05:13:06;8.68;;;5.43;;
21591;SDS011;10958;50.892;3.992;2023-07-08T05:15:36;9.32;;;5.60;;
21591;SDS011;10958;50.892;3.992;2023-07-08T05:18:01;7.57;;;5.10;;
21591;SDS011;10958;50.892;3.992;2023-07-08T05:20:28;7.22;;;4.90;;
21591;SDS011;10958;50.892;3.992;2023-07-08T05:22:59;6.70;;;4.95;;
21591;SDS011;10958;50.892;3.992;2023-07-08T05:25:26;10.52;;;5.60;;
21591;SDS011;10958;50.892;3.992;2023-07-08T05:27:54;9.95;;;5.53;;
21591;SDS011;10958;50.892;3.992;2023-07-08T05:30:21;8.95;;;5.93;;
21591;SDS011;10958;50.892;3.992;2023-07-08T05:32:49;9.13;;;5.70;;
21591;SDS011;10958;50.892;3.992;2023-07-08T05:35:15;11.97;;;5.50;;
21591;SDS011;10958;50.892;3.992;2023-07-08T05:37:40;11.65;;;5.68;;
21591;SDS011;10958;50.892;3.992;2023-07-08T05:40:09;12.95;;;5.30;;
21591;SDS011;10958;50.892;3.992;2023-07-08T05:42:35;10.32;;;5.07;;
21591;SDS011;10958;50.892;3.992;2023-07-08T05:45:02;13.52;;;5.70;;
21591;SDS011;10958;50.892;3.992;2023-07-08T05:47:32;9.70;;;5.45;;
21591;SDS011;10958;50.892;3.992;2023-07-08T05:49:58;9.23;;;5.30;;
21591;SDS011;10958;50.892;3.992;2023-07-08T05:52:26;10.98;;;4.97;;
21591;SDS011;10958;50.892;3.992;2023-07-08T05:54:53;7.40;;;4.85;;
21591;SDS011;10958;50.892;3.992;2023-07-08T05:57:20;8.23;;;5.68;;
21591;SDS011;10958;50.892;3.992;2023-07-08T05:59:46;7.22;;;5.38;;
21591;SDS011;10958;50.892;3.992;2023-07-08T06:02:14;9.20;;;5.28;;
21591;SDS011;10958;50.892;3.992;2023-07-08T06:04:40;7.50;;;4.82;;
21591;SDS011;10958;50.892;3.992;2023-07-08T06:07:06;11.55;;;5.15;;
21591;SDS011;10958;50.892;3.992;2023-07-08T06:09:34;8.68;;;4.75;;
21591;SDS011;10958;50.892;3.992;2023-07-08T06:12:00;7.30;;;4.93;;
21591;SDS011;10958;50.892;3.992;2023-07-08T06:14:28;8.30;;;5.88;;
21591;SDS011;10958;50.892;3.992;2023-07-08T06:16:57;7.10;;;5.07;;
21591;SDS011;10958;50.892;3.992;2023-07-08T06:19:26;9.27;;;5.20;;
21591;SDS011;10958;50.892;3.992;2023-07-08T06:21:52;7.97;;;5.30;;
21591;SDS011;10958;50.892;3.992;2023-07-08T06:24:18;8.98;;;5.25;;
21591;SDS011;10958;50.892;3.992;2023-07-08T06:26:46;10.65;;;5.30;;
21591;SDS011;10958;50.892;3.992;2023-07-08T06:29:15;6.68;;;5.18;;
21591;SDS011;10958;50.892;3.992;2023-07-08T06:31:44;7.78;;;4.95;;
21591;SDS011;10958;50.892;3.992;2023-07-08T06:34:10;9.57;;;5.15;;
21591;SDS011;10958;50.892;3.992;2023-07-08T06:36:35;6.93;;;4.88;;
21591;SDS011;10958;50.892;3.992;2023-07-08T06:39:01;8.43;;;5.00;;
21591;SDS011;10958;50.892;3.992;2023-07-08T06:41:28;7.68;;;5.00;;
21591;SDS011;10958;50.892;3.992;2023-07-08T06:43:53;6.20;;;4.50;;
21591;SDS011;10958;50.892;3.992;2023-07-08T06:46:19;7.13;;;4.70;;
21591;SDS011;10958;50.892;3.992;2023-07-08T06:48:45;9.05;;;5.30;;
21591;SDS011;10958;50.892;3.992;2023-07-08T06:51:11;9.23;;;4.85;;
21591;SDS011;10958;50.892;3.992;2023-07-08T06:53:39;5.50;;;4.60;;
21591;SDS011;10958;50.892;3.992;2023-07-08T06:56:04;7.82;;;5.07;;
21591;SDS011;10958;50.892;3.992;2023-07-08T06:58:30;7.35;;;5.22;;
21591;SDS011;10958;50.892;3.992;2023-07-08T07:01:00;10.27;;;4.88;;
21591;SDS011;10958;50.892;3.992;2023-07-08T07:03:28;6.28;;;4.93;;
21591;SDS011;10958;50.892;3.992;2023-07-08T07:05:54;8.75;;;5.05;;
21591;SDS011;10958;50.892;3.992;2023-07-08T07:08:22;9.98;;;5.35;;
21591;SDS011;10958;50.892;3.992;2023-07-08T07:10:48;8.10;;;4.97;;
21591;SDS011;10958;50.892;3.992;2023-07-08T07:13:18;9.63;;;5.05;;
21591;SDS011;10958;50.892;3.992;2023-07-08T07:15:49;8.10;;;5.65;;
21591;SDS011;10958;50.892;3.992;2023-07-08T07:18:15;9.68;;;5.30;;
21591;SDS011;10958;50.892;3.992;2023-07-08T07:20:49;11.90;;;6.18;;
21591;SDS011;10958;50.892;3.992;2023-07-08T07:23:20;8.40;;;5.93;;
21591;SDS011;10958;50.892;3.992;2023-07-08T07:25:49;10.18;;;5.63;;
21591;SDS011;10958;50.892;3.992;2023-07-08T07:30:42;7.43;;;5.35;;
21591;SDS011;10958;50.892;3.992;2023-07-08T07:33:14;8.15;;;5.00;;
21591;SDS011;10958;50.892;3.992;2023-07-08T07:35:43;6.47;;;5.15;;
21591;SDS011;10958;50.892;3.992;2023-07-08T07:38:13;7.80;;;5.00;;
21591;SDS011;10958;50.892;3.992;2023-07-08T07:40:43;9.85;;;5.53;;
21591;SDS011;10958;50.892;3.992;2023-07-08T07:43:08;6.28;;;5.20;;
21591;SDS011;10958;50.892;3.992;2023-07-08T07:45:34;7.57;;;5.30;;
21591;SDS011;10958;50.892;3.992;2023-07-08T07:48:00;8.35;;;5.55;;
21591;SDS011;10958;50.892;3.992;2023-07-08T07:50:28;7.70;;;5.70;;
21591;SDS011;10958;50.892;3.992;2023-07-08T07:52:56;9.23;;;6.18;;
21591;SDS011;10958;50.892;3.992;2023-07-08T07:55:22;9.68;;;5.95;;
21591;SDS011;10958;50.892;3.992;2023-07-08T07:57:48;10.30;;;6.05;;
21591;SDS011;10958;50.892;3.992;2023-07-08T08:00:18;7.90;;;5.70;;
21591;SDS011;10958;50.892;3.992;2023-07-08T08:02:46;12.63;;;5.85;;
21591;SDS011;10958;50.892;3.992;2023-07-08T08:05:12;11.10;;;6.40;;
21591;SDS011;10958;50.892;3.992;2023-07-08T08:07:38;12.07;;;6.30;;
21591;SDS011;10958;50.892;3.992;2023-07-08T08:10:05;9.00;;;5.85;;
21591;SDS011;10958;50.892;3.992;2023-07-08T08:12:31;8.13;;;6.30;;
21591;SDS011;10958;50.892;3.992;2023-07-08T08:14:57;7.60;;;5.53;;
21591;SDS011;10958;50.892;3.992;2023-07-08T08:17:28;10.63;;;6.00;;
21591;SDS011;10958;50.892;3.992;2023-07-08T08:22:24;8.80;;;5.85;;
21591;SDS011;10958;50.892;3.992;2023-07-08T08:24:50;8.68;;;5.78;;
21591;SDS011;10958;50.892;3.992;2023-07-08T08:27:16;7.88;;;5.32;;
21591;SDS011;10958;50.892;3.992;2023-07-08T08:29:43;6.78;;;5.68;;
21591;SDS011;10958;50.892;3.992;2023-07-08T08:32:09;9.10;;;6.00;;
21591;SDS011;10958;50.892;3.992;2023-07-08T08:34:39;7.38;;;5.65;;
21591;SDS011;10958;50.892;3.992;2023-07-08T08:37:07;9.80;;;5.78;;
21591;SDS011;10958;50.892;3.992;2023-07-08T08:39:35;10.68;;;6.15;;
21591;SDS011;10958;50.892;3.992;2023-07-08T08:42:03;10.32;;;6.28;;
21591;SDS011;10958;50.892;3.992;2023-07-08T08:44:33;9.32;;;5.72;;
21591;SDS011;10958;50.892;3.992;2023-07-08T08:49:35;7.22;;;6.47;;
21591;SDS011;10958;50.892;3.992;2023-07-08T08:52:11;12.43;;;7.72;;
21591;SDS011;10958;50.892;3.992;2023-07-08T08:59:45;11.50;;;6.50;;
21591;SDS011;10958;50.892;3.992;2023-07-08T09:05:18;10.57;;;6.53;;
21591;SDS011;10958;50.892;3.992;2023-07-08T09:13:21;8.90;;;6.00;;
21591;SDS011;10958;50.892;3.992;2023-07-08T09:15:59;8.07;;;6.35;;
21591;SDS011;10958;50.892;3.992;2023-07-08T09:18:32;7.93;;;6.80;;
21591;SDS011;10958;50.892;3.992;2023-07-08T09:21:12;12.63;;;5.90;;
21591;SDS011;10958;50.892;3.992;2023-07-08T09:23:49;8.85;;;6.22;;
21591;SDS011;10958;50.892;3.992;2023-07-08T09:26:22;7.22;;;6.00;;
21591;SDS011;10958;50.892;3.992;2023-07-08T09:28:50;9.80;;;7.03;;
21591;SDS011;10958;50.892;3.992;2023-07-08T09:31:23;9.52;;;5.47;;
21591;SDS011;10958;50.892;3.992;2023-07-08T09:34:04;7.63;;;6.00;;
21591;SDS011;10958;50.892;3.992;2023-07-08T09:36:33;11.52;;;6.55;;
21591;SDS011;10958;50.892;3.992;2023-07-08T09:38:59;6.90;;;6.13;;
21591;SDS011;10958;50.892;3.992;2023-07-08T09:41:31;9.63;;;6.40;;
21591;SDS011;10958;50.892;3.992;2023-07-08T09:44:06;9.20;;;6.00;;
21591;SDS011;10958;50.892;3.992;2023-07-08T09:46:51;10.70;;;6.60;;
21591;SDS011;10958;50.892;3.992;2023-07-08T09:51:57;7.20;;;6.30;;
21591;SDS011;10958;50.892;3.992;2023-07-08T09:54:24;7.32;;;6.03;;
21591;SDS011;10958;50.892;3.992;2023-07-08T09:57:12;8.60;;;6.13;;
21591;SDS011;10958;50.892;3.992;2023-07-08T10:00:03;9.05;;;6.88;;
21591;SDS011;10958;50.892;3.992;2023-07-08T10:03:35;10.20;;;6.43;;
21591;SDS011;10958;50.892;3.992;2023-07-08T10:06:22;9.25;;;5.90;;
21591;SDS011;10958;50.892;3.992;2023-07-08T10:08:55;6.68;;;5.93;;
21591;SDS011;10958;50.892;3.992;2023-07-08T10:11:35;8.35;;;6.00;;
21591;SDS011;10958;50.892;3.992;2023-07-08T10:14:16;6.88;;;5.88;;
21591;SDS011;10958;50.892;3.992;2023-07-08T10:19:13;8.35;;;6.57;;
21591;SDS011;10958;50.892;3.992;2023-07-08T10:21:55;6.72;;;6.05;;
21591;SDS011;10958;50.892;3.992;2023-07-08T10:27:11;10.30;;;6.20;;
21591;SDS011;10958;50.892;3.992;2023-07-08T10:35:28;11.88;;;6.57;;
21591;SDS011;10958;50.892;3.992;2023-07-08T10:38:25;9.57;;;6.25;;
21591;SDS011;10958;50.892;3.992;2023-07-08T10:43:58;10.73;;;6.55;;
21591;SDS011;10958;50.892;3.992;2023-07-08T10:57:45;11.05;;;6.43;;
21591;SDS011;10958;50.892;3.992;2023-07-08T11:05:56;10.00;;;6.78;;
21591;SDS011;10958;50.892;3.992;2023-07-08T11:08:27;10.85;;;7.07;;
21591;SDS011;10958;50.892;3.992;2023-07-08T11:11:49;7.20;;;6.38;;
21591;SDS011;10958;50.892;3.992;2023-07-08T11:17:17;8.52;;;7.03;;
21591;SDS011;10958;50.892;3.992;2023-07-08T11:20:37;8.07;;;6.45;;
21591;SDS011;10958;50.892;3.992;2023-07-08T11:22:42;7.55;;;6.47;;
21591;SDS011;10958;50.892;3.992;2023-07-08T11:25:21;10.32;;;6.20;;
21591;SDS011;10958;50.892;3.992;2023-07-08T11:27:52;8.40;;;6.38;;
21591;SDS011;10958;50.892;3.992;2023-07-08T11:30:22;8.93;;;6.50;;
21591;SDS011;10958;50.892;3.992;2023-07-08T11:32:52;9.65;;;6.38;;
21591;SDS011;10958;50.892;3.992;2023-07-08T11:35:34;10.13;;;5.93;;
21591;SDS011;10958;50.892;3.992;2023-07-08T11:38:06;8.85;;;6.75;;
21591;SDS011;10958;50.892;3.992;2023-07-08T11:40:55;10.00;;;6.63;;
21591;SDS011;10958;50.892;3.992;2023-07-08T11:43:45;11.27;;;6.35;;
21591;SDS011;10958;50.892;3.992;2023-07-08T11:46:25;6.75;;;5.43;;
21591;SDS011;10958;50.892;3.992;2023-07-08T11:49:03;8.20;;;5.90;;
21591;SDS011;10958;50.892;3.992;2023-07-08T11:51:40;7.90;;;5.90;;
21591;SDS011;10958;50.892;3.992;2023-07-08T11:54:20;8.23;;;5.80;;
21591;SDS011;10958;50.892;3.992;2023-07-08T11:59:25;8.23;;;5.95;;
21591;SDS011;10958;50.892;3.992;2023-07-08T12:02:30;9.10;;;6.05;;
21591;SDS011;10958;50.892;3.992;2023-07-08T12:05:11;14.03;;;5.33;;
21591;SDS011;10958;50.892;3.992;2023-07-08T12:07:42;8.35;;;5.28;;
21591;SDS011;10958;50.892;3.992;2023-07-08T12:10:11;8.48;;;5.40;;
21591;SDS011;10958;50.892;3.992;2023-07-08T12:12:48;10.60;;;5.95;;
21591;SDS011;10958;50.892;3.992;2023-07-08T12:15:31;7.50;;;6.13;;
21591;SDS011;10958;50.892;3.992;2023-07-08T12:20:52;13.68;;;5.00;;
21591;SDS011;10958;50.892;3.992;2023-07-08T12:23:23;8.07;;;5.47;;
21591;SDS011;10958;50.892;3.992;2023-07-08T12:25:51;8.15;;;5.28;;
21591;SDS011;10958;50.892;3.992;2023-07-08T12:28:17;6.80;;;5.10;;
21591;SDS011;10958;50.892;3.992;2023-07-08T12:30:45;8.60;;;5.38;;
21591;SDS011;10958;50.892;3.992;2023-07-08T12:33:15;10.20;;;6.10;;
21591;SDS011;10958;50.892;3.992;2023-07-08T12:35:45;9.98;;;5.18;;
21591;SDS011;10958;50.892;3.992;2023-07-08T12:38:33;11.90;;;5.43;;
21591;SDS011;10958;50.892;3.992;2023-07-08T12:41:00;8.40;;;5.57;;
21591;SDS011;10958;50.892;3.992;2023-07-08T12:43:34;6.45;;;5.30;;
21591;SDS011;10958;50.892;3.992;2023-07-08T12:46:03;10.88;;;5.75;;
21591;SDS011;10958;50.892;3.992;2023-07-08T12:48:35;9.48;;;5.80;;
21591;SDS011;10958;50.892;3.992;2023-07-08T12:51:02;12.57;;;5.50;;
21591;SDS011;10958;50.892;3.992;2023-07-08T12:53:31;7.18;;;5.60;;
21591;SDS011;10958;50.892;3.992;2023-07-08T12:55:59;12.10;;;5.57;;
21591;SDS011;10958;50.892;3.992;2023-07-08T12:58:27;8.27;;;5.32;;
21591;SDS011;10958;50.892;3.992;2023-07-08T13:00:58;8.50;;;5.60;;
21591;SDS011;10958;50.892;3.992;2023-07-08T13:03:30;13.95;;;5.50;;
21591;SDS011;10958;50.892;3.992;2023-07-08T13:05:59;6.03;;;5.18;;
21591;SDS011;10958;50.892;3.992;2023-07-08T13:08:32;7.35;;;4.97;;
21591;SDS011;10958;50.892;3.992;2023-07-08T13:11:01;8.88;;;5.03;;
21591;SDS011;10958;50.892;3.992;2023-07-08T13:13:31;12.80;;;5.65;;
21591;SDS011;10958;50.892;3.992;2023-07-08T13:16:07;10.98;;;4.82;;
21591;SDS011;10958;50.892;3.992;2023-07-08T13:18:39;6.65;;;5.45;;
21591;SDS011;10958;50.892;3.992;2023-07-08T13:21:06;13.88;;;5.38;;
21591;SDS011;10958;50.892;3.992;2023-07-08T13:23:37;8.55;;;5.25;;
21591;SDS011;10958;50.892;3.992;2023-07-08T13:26:17;12.10;;;7.55;;
21591;SDS011;10958;50.892;3.992;2023-07-08T13:28:46;8.73;;;5.28;;
21591;SDS011;10958;50.892;3.992;2023-07-08T13:31:21;8.02;;;5.53;;
21591;SDS011;10958;50.892;3.992;2023-07-08T13:33:56;10.27;;;5.63;;
21591;SDS011;10958;50.892;3.992;2023-07-08T13:36:32;9.50;;;5.30;;
21591;SDS011;10958;50.892;3.992;2023-07-08T13:39:02;7.15;;;5.13;;
21591;SDS011;10958;50.892;3.992;2023-07-08T13:41:31;9.65;;;5.80;;
21591;SDS011;10958;50.892;3.992;2023-07-08T13:43:57;9.43;;;4.88;;
21591;SDS011;10958;50.892;3.992;2023-07-08T13:46:43;9.25;;;4.80;;
21591;SDS011;10958;50.892;3.992;2023-07-08T13:51:51;10.35;;;4.97;;
21591;SDS011;10958;50.892;3.992;2023-07-08T13:54:24;8.45;;;5.43;;
21591;SDS011;10958;50.892;3.992;2023-07-08T13:56:52;8.45;;;4.93;;
21591;SDS011;10958;50.892;3.992;2023-07-08T13:59:24;7.05;;;5.30;;
21591;SDS011;10958;50.892;3.992;2023-07-08T14:01:55;7.50;;;5.43;;
21591;SDS011;10958;50.892;3.992;2023-07-08T14:04:33;7.15;;;4.90;;
21591;SDS011;10958;50.892;3.992;2023-07-08T14:07:00;6.47;;;4.75;;
21591;SDS011;10958;50.892;3.992;2023-07-08T14:09:26;9.93;;;5.13;;
21591;SDS011;10958;50.892;3.992;2023-07-08T14:11:52;10.80;;;5.03;;
21591;SDS011;10958;50.892;3.992;2023-07-08T14:14:18;8.27;;;5.45;;
21591;SDS011;10958;50.892;3.992;2023-07-08T14:16:54;12.45;;;5.03;;
21591;SDS011;10958;50.892;3.992;2023-07-08T14:19:23;7.97;;;5.40;;
21591;SDS011;10958;50.892;3.992;2023-07-08T14:21:53;8.38;;;5.25;;
21591;SDS011;10958;50.892;3.992;2023-07-08T14:24:24;11.75;;;4.97;;
21591;SDS011;10958;50.892;3.992;2023-07-08T14:26:50;8.63;;;5.05;;
21591;SDS011;10958;50.892;3.992;2023-07-08T14:29:17;7.60;;;5.10;;
21591;SDS011;10958;50.892;3.992;2023-07-08T14:31:45;12.95;;;4.97;;
21591;SDS011;10958;50.892;3.992;2023-07-08T14:34:11;8.50;;;5.32;;
21591;SDS011;10958;50.892;3.992;2023-07-08T14:36:42;12.40;;;5.15;;
21591;SDS011;10958;50.892;3.992;2023-07-08T14:39:14;10.02;;;5.53;;
21591;SDS011;10958;50.892;3.992;2023-07-08T14:41:41;10.73;;;5.25;;
21591;SDS011;10958;50.892;3.992;2023-07-08T14:44:20;10.85;;;5.40;;
21591;SDS011;10958;50.892;3.992;2023-07-08T14:46:48;10.98;;;5.13;;
21591;SDS011;10958;50.892;3.992;2023-07-08T14:49:19;9.50;;;5.47;;
21591;SDS011;10958;50.892;3.992;2023-07-08T14:51:46;9.75;;;5.43;;
21591;SDS011;10958;50.892;3.992;2023-07-08T14:54:12;6.38;;;5.10;;
21591;SDS011;10958;50.892;3.992;2023-07-08T14:56:38;9.73;;;5.40;;
21591;SDS011;10958;50.892;3.992;2023-07-08T14:59:05;7.22;;;5.28;;
21591;SDS011;10958;50.892;3.992;2023-07-08T15:01:34;9.25;;;5.45;;
21591;SDS011;10958;50.892;3.992;2023-07-08T15:04:01;8.23;;;4.70;;
21591;SDS011;10958;50.892;3.992;2023-07-08T15:06:27;9.40;;;5.20;;
21591;SDS011;10958;50.892;3.992;2023-07-08T15:08:56;9.38;;;5.30;;
21591;SDS011;10958;50.892;3.992;2023-07-08T15:11:24;9.68;;;4.88;;
21591;SDS011;10958;50.892;3.992;2023-07-08T15:13:53;8.68;;;4.80;;
21591;SDS011;10958;50.892;3.992;2023-07-08T15:16:18;9.80;;;4.72;;
21591;SDS011;10958;50.892;3.992;2023-07-08T15:18:44;9.32;;;4.82;;
21591;SDS011;10958;50.892;3.992;2023-07-08T15:21:13;8.82;;;4.43;;
21591;SDS011;10958;50.892;3.992;2023-07-08T15:23:40;11.20;;;4.70;;
21591;SDS011;10958;50.892;3.992;2023-07-08T15:26:09;8.32;;;4.93;;
21591;SDS011;10958;50.892;3.992;2023-07-08T15:31:12;6.88;;;4.65;;
21591;SDS011;10958;50.892;3.992;2023-07-08T15:33:40;6.03;;;4.43;;
21591;SDS011;10958;50.892;3.992;2023-07-08T15:36:12;7.80;;;4.30;;
21591;SDS011;10958;50.892;3.992;2023-07-08T15:38:41;7.22;;;4.43;;
21591;SDS011;10958;50.892;3.992;2023-07-08T15:41:21;8.07;;;4.35;;
21591;SDS011;10958;50.892;3.992;2023-07-08T15:43:48;8.88;;;4.53;;
21591;SDS011;10958;50.892;3.992;2023-07-08T15:46:17;8.77;;;4.78;;
21591;SDS011;10958;50.892;3.992;2023-07-08T15:48:43;7.35;;;4.75;;
21591;SDS011;10958;50.892;3.992;2023-07-08T15:53:40;6.03;;;4.13;;
21591;SDS011;10958;50.892;3.992;2023-07-08T15:56:10;8.32;;;4.20;;
21591;SDS011;10958;50.892;3.992;2023-07-08T15:58:39;7.90;;;3.97;;
21591;SDS011;10958;50.892;3.992;2023-07-08T16:01:07;5.77;;;3.47;;
21591;SDS011;10958;50.892;3.992;2023-07-08T16:03:40;6.45;;;3.85;;
21591;SDS011;10958;50.892;3.992;2023-07-08T16:08:34;6.07;;;3.60;;
21591;SDS011;10958;50.892;3.992;2023-07-08T16:11:01;4.93;;;3.80;;
21591;SDS011;10958;50.892;3.992;2023-07-08T16:13:36;7.65;;;4.05;;
21591;SDS011;10958;50.892;3.992;2023-07-08T16:16:03;8.27;;;4.03;;
21591;SDS011;10958;50.892;3.992;2023-07-08T16:18:31;6.28;;;3.70;;
21591;SDS011;10958;50.892;3.992;2023-07-08T16:20:59;7.28;;;3.60;;
21591;SDS011;10958;50.892;3.992;2023-07-08T16:23:25;5.85;;;3.80;;
21591;SDS011;10958;50.892;3.992;2023-07-08T16:25:51;7.45;;;4.25;;
21591;SDS011;10958;50.892;3.992;2023-07-08T16:28:28;9.73;;;4.28;;